Ice Star — OUJK2 — position and weather

sailwx.info

Track history (hours):
 
Tides and Currents Weather Stations Pressure Air Temp Water Temp Dewpoint Dewpoint Depression Visibility Wind Speed Wind Dir Waves Ship Positions

Ice Star

Last reported at 2017-Aug-20 16:43 UTC. Time now 2017-Aug-20 17:20 UTC.
Position N 34°48' W 122°49'.

Length 367 m; draft 13.9 m.

Type: Ship (hazmat cat A). MMSI: 220596000.

Date/timePositionNaut miles runAvg speedWind from/ knotsBaromVisibWave heightAir tempDewpointWater temp
2017-Aug-20 16:43N 34°48' W 122°49'515.5
2017-Aug-20 16:24N 34°49' W 122°55'715.9
2017-Aug-20 15:58N 34°51' W 123°03'716.0
2017-Aug-20 15:30N 34°52' W 123°12'816.2
2017-Aug-20 15:00N 34°54' W 123°22'816.1
2017-Aug-20 14:30N 34°56' W 123°31'815.7
2017-Aug-20 14:00N 34°58' W 123°40'1216.0
2017-Aug-20 13:14N 35°02' W 123°55'516.1
2017-Aug-20 12:57N 35°03' W 124°00'30016.4
2017-Aug-19 18:38N 37°04' W 129°40'219.9
2017-Aug-19 18:30N 37°05' W 129°43'1819.2
2017-Aug-19 17:34N 37°14' W 130°02'119.3
2017-Aug-19 17:30N 37°14' W 130°04'918.5
2017-Aug-19 17:00N 37°19' W 130°14'1217.3
2017-Aug-19 16:20N 37°25' W 130°26'2817.3
2017-Aug-19 14:44N 37°38' W 130°57'  
Track history (hours):
 
Tides and Currents Weather Stations Pressure Air Temp Water Temp Dewpoint Dewpoint Depression Visibility Wind Speed Wind Dir Waves Ship Positions

Ice Star

Last reported at 2017-Aug-20 16:43 UTC. Time now 2017-Aug-20 17:20 UTC.
Position N 34°48' W 122°49'.

Length 367 m; draft 13.9 m.

Type: Ship (hazmat cat A). MMSI: 220596000.

Date/timePositionNaut miles runAvg speedWind from/ knotsBaromVisibWave heightAir tempDewpointWater temp
2017-Aug-20 16:43N 34°48' W 122°49'515.5
2017-Aug-20 16:24N 34°49' W 122°55'715.9
2017-Aug-20 15:58N 34°51' W 123°03'716.0
2017-Aug-20 15:30N 34°52' W 123°12'816.2
2017-Aug-20 15:00N 34°54' W 123°22'816.1
2017-Aug-20 14:30N 34°56' W 123°31'815.7
2017-Aug-20 14:00N 34°58' W 123°40'1216.0
2017-Aug-20 13:14N 35°02' W 123°55'516.1
2017-Aug-20 12:57N 35°03' W 124°00'30016.4
2017-Aug-19 18:38N 37°04' W 129°40'219.9
2017-Aug-19 18:30N 37°05' W 129°43'1819.2
2017-Aug-19 17:34N 37°14' W 130°02'119.3
2017-Aug-19 17:30N 37°14' W 130°04'918.5
2017-Aug-19 17:00N 37°19' W 130°14'1217.3
2017-Aug-19 16:20N 37°25' W 130°26'2817.3
2017-Aug-19 14:44N 37°38' W 130°57'  

Dump ship's entire track history